Mount Vernon, Oregon
Current Conditions -  °F | °C
As of 10:15 PM on Wednesday 28 Jan 2015 (Local Time) from KGCD Reporting Station
Clear Clear  
Wind Chill: 33°   Ceiling: Unl
Heat Index: 39°   Visibility: 10mi
Dew Point: 32°   Wind: 9mph
Humidity: 75%   Direction: 110°ESE
Pressure: 30.35"   Gusts: NA
Location:  44.42°N, 119.11°W
Report Text: KGCD 290615Z AUTO 11008KT 10SM CLR 04/00 A3035 RMK AO2 T00410000
Loading
Personal Weather Stations






























Interactive Weather Map New forecast layout! Learn more

10-Day Weather Forecast

Advertisements
Track Severe Weather on mobile